Time;durP1;ratioP1;P1;durP2;ratioP2;P2;SDS_P1;SDS_P2;PMS_P1;PMS_P2;Temp;Humidity;BMP_temperature;BMP_pressure;BME280_temperature;BME280_humidity;BME280_pressure;Samples;Min_cycle;Max_cycle;Signal;HPM_P1;HPM_P2
2021/09/11 00:03:03;;;;;;;5.82;3.22;;;18.80;99.90;;;;;;6701912;88;21181;-76
2021/09/11 00:13:04;;;;;;;5.72;3.37;;;18.80;99.90;;;;;;6699361;77;20210;-79
2021/09/11 00:23:09;;;;;;;5.15;3.25;;;18.80;99.90;;;;;;6698326;88;20192;-79
2021/09/11 00:33:09;;;;;;;6.72;3.55;;;18.80;99.90;;;;;;6693252;88;20220;-78
2021/09/11 00:43:10;;;;;;;6.07;3.30;;;18.70;99.90;;;;;;6692954;88;20194;-79
2021/09/11 00:53:13;;;;;;;4.87;3.03;;;18.70;99.90;;;;;;6688470;88;20249;-78
2021/09/11 01:03:13;;;;;;;5.15;3.45;;;18.80;99.90;;;;;;6692336;88;20286;-78
2021/09/11 01:13:14;;;;;;;4.50;3.22;;;18.80;99.90;;;;;;6691577;88;20407;-78
2021/09/11 01:23:15;;;;;;;6.62;3.25;;;18.80;99.90;;;;;;6691787;88;20348;-79
2021/09/11 01:33:15;;;;;;;5.57;3.40;;;18.70;99.90;;;;;;6698069;88;20207;-79
2021/09/11 01:43:25;;;;;;;4.55;3.37;;;18.70;99.90;;;;;;6692651;88;20655;-78
2021/09/11 01:53:25;;;;;;;5.05;3.60;;;18.50;99.90;;;;;;6692528;88;20183;-79
2021/09/11 02:03:26;;;;;;;5.40;3.17;;;18.40;99.90;;;;;;6692769;88;20337;-79
2021/09/11 02:13:26;;;;;;;6.37;3.50;;;18.40;99.90;;;;;;6696876;88;20214;-79
2021/09/11 02:23:27;;;;;;;5.78;3.90;;;18.20;99.90;;;;;;6693158;88;20608;-79
2021/09/11 02:33:28;;;;;;;6.85;3.50;;;18.20;99.90;;;;;;6691307;88;20682;-79
2021/09/11 02:43:28;;;;;;;6.28;3.87;;;18.40;99.90;;;;;;6693790;88;20241;-78
2021/09/11 02:53:29;;;;;;;4.97;3.25;;;18.40;99.90;;;;;;6691105;88;20233;-78
2021/09/11 03:03:29;;;;;;;5.07;3.37;;;18.60;99.90;;;;;;6690107;88;20190;-79
2021/09/11 03:13:30;;;;;;;5.55;3.30;;;18.50;99.90;;;;;;6690017;88;20219;-79
2021/09/11 03:23:30;;;;;;;8.23;3.78;;;18.30;99.90;;;;;;6690453;88;20194;-79
2021/09/11 03:33:31;;;;;;;7.22;4.15;;;18.30;99.90;;;;;;6687525;88;20371;-78
2021/09/11 03:43:31;;;;;;;6.68;4.53;;;18.20;99.90;;;;;;6690128;88;20254;-78
2021/09/11 03:53:32;;;;;;;10.80;4.43;;;18.10;99.90;;;;;;6689804;88;20210;-78
2021/09/11 04:03:34;;;;;;;7.95;4.40;;;18.20;99.90;;;;;;6689920;88;20212;-79
2021/09/11 04:13:35;;;;;;;8.07;4.68;;;18.10;99.90;;;;;;6689429;88;20211;-78
2021/09/11 04:23:35;;;;;;;7.78;4.97;;;18.00;99.90;;;;;;6690133;88;20211;-79
2021/09/11 04:33:36;;;;;;;9.93;5.10;;;18.00;99.90;;;;;;6690476;88;20202;-79
2021/09/11 04:43:37;;;;;;;8.95;5.50;;;17.80;99.90;;;;;;6688466;88;20202;-79
2021/09/11 04:53:37;;;;;;;5.75;4.22;;;17.80;99.90;;;;;;6686400;88;20304;-78
2021/09/11 05:03:38;;;;;;;7.40;4.68;;;17.90;99.90;;;;;;6691120;88;20294;-78
2021/09/11 05:13:38;;;;;;;6.30;4.70;;;17.80;99.90;;;;;;6691630;88;20208;-78
2021/09/11 05:23:38;;;;;;;6.53;4.70;;;17.80;99.90;;;;;;6691074;88;20223;-78
2021/09/11 05:33:39;;;;;;;8.98;5.47;;;18.00;99.90;;;;;;6688796;88;20212;-79
2021/09/11 05:43:40;;;;;;;7.68;5.35;;;18.00;99.90;;;;;;6691201;88;20202;-78
2021/09/11 05:53:40;;;;;;;8.50;5.15;;;18.00;99.90;;;;;;6690790;88;20708;-77
2021/09/11 06:03:41;;;;;;;6.95;5.18;;;17.90;99.90;;;;;;6692712;88;20195;-79
2021/09/11 06:13:41;;;;;;;7.50;5.05;;;17.80;99.90;;;;;;6692604;88;20279;-79
2021/09/11 06:23:42;;;;;;;9.13;5.85;;;17.80;99.90;;;;;;6690501;88;20325;-78
2021/09/11 06:33:42;;;;;;;8.88;4.97;;;18.00;99.90;;;;;;6687122;88;20216;-78
2021/09/11 06:43:43;;;;;;;8.25;4.97;;;18.30;99.90;;;;;;6674814;89;20212;-78
2021/09/11 06:53:43;;;;;;;8.85;6.15;;;18.60;99.90;;;;;;6683803;88;20916;-77
2021/09/11 07:03:45;;;;;;;7.72;5.22;;;18.60;99.90;;;;;;6679891;88;20228;-79
2021/09/11 07:13:46;;;;;;;8.85;4.78;;;19.20;99.90;;;;;;6673878;89;20203;-78
2021/09/11 07:23:46;;;;;;;8.43;4.70;;;19.70;99.90;;;;;;6682080;88;20212;-79
2021/09/11 07:33:47;;;;;;;7.12;4.70;;;19.90;99.90;;;;;;6693679;88;20250;-78
2021/09/11 07:43:47;;;;;;;6.97;4.30;;;20.20;99.90;;;;;;6687662;88;20298;-80
2021/09/11 07:53:48;;;;;;;6.25;4.43;;;21.20;99.90;;;;;;6689019;88;20187;-80
2021/09/11 08:03:48;;;;;;;6.40;4.27;;;22.00;99.90;;;;;;6685517;88;20612;-78
2021/09/11 08:13:49;;;;;;;5.55;4.28;;;21.70;99.90;;;;;;6675211;88;20215;-79
2021/09/11 08:23:50;;;;;;;6.32;3.90;;;21.30;99.90;;;;;;6685724;88;20214;-79
2021/09/11 08:33:51;;;;;;;7.30;4.10;;;21.10;99.90;;;;;;6685109;88;20216;-80
2021/09/11 08:43:51;;;;;;;4.70;3.20;;;20.90;99.90;;;;;;6690565;88;20226;-80
2021/09/11 08:53:52;;;;;;;5.07;3.37;;;22.80;99.90;;;;;;6690299;89;20186;-79
2021/09/11 09:03:52;;;;;;;7.12;2.75;;;23.80;99.90;;;;;;6689050;89;20175;-80
2021/09/11 09:14:11;;;;;;;3.00;2.22;;;23.70;99.90;;;;;;6694068;89;20284;-80
2021/09/11 09:24:14;;;;;;;5.18;1.85;;;23.40;99.90;;;;;;6691154;89;20194;-81
2021/09/11 09:34:36;;;;;;;3.50;1.70;;;22.60;99.90;;;;;;6691651;89;20179;-81
2021/09/11 09:44:53;;;;;;;2.30;1.30;;;22.50;99.90;;;;;;6693041;88;20244;-80
2021/09/11 09:54:56;;;;;;;4.07;1.40;;;25.20;99.90;;;;;;6691944;88;20197;-79
2021/09/11 10:04:56;;;;;;;1.98;1.37;;;24.30;99.90;;;;;;6696508;88;20286;-79
2021/09/11 10:15:33;;;;;;;2.67;1.33;;;23.00;99.90;;;;;;6694066;88;20221;-82
2021/09/11 10:25:40;;;;;;;3.05;1.30;;;23.80;99.90;;;;;;6695796;88;20328;-80
2021/09/11 10:35:41;;;;;;;1.75;1.10;;;23.70;99.90;;;;;;6696510;88;20231;-79
2021/09/11 10:45:47;;;;;;;2.73;1.20;;;23.90;99.90;;;;;;6697357;88;20306;-78
2021/09/11 10:55:49;;;;;;;3.15;1.20;;;24.80;99.90;;;;;;6697429;88;20496;-79
2021/09/11 11:06:03;;;;;;;2.30;1.20;;;24.60;99.90;;;;;;6680238;88;20175;-78
2021/09/11 11:16:03;;;;;;;1.70;1.20;;;24.10;99.90;;;;;;6684249;88;20238;-77
2021/09/11 11:26:04;;;;;;;4.57;1.30;;;24.00;99.90;;;;;;6690879;88;20228;-77
2021/09/11 11:36:05;;;;;;;2.17;1.20;;;24.40;99.90;;;;;;6689871;88;20992;-77
2021/09/11 11:46:06;;;;;;;2.12;1.30;;;23.90;99.90;;;;;;6687431;88;20266;-80
2021/09/11 11:56:07;;;;;;;3.12;1.40;;;23.20;99.90;;;;;;6688318;88;20207;-77
2021/09/11 12:06:29;;;;;;;2.10;1.20;;;23.10;99.90;;;;;;6687837;88;20321;-79
2021/09/11 12:16:31;;;;;;;2.90;1.30;;;22.90;99.90;;;;;;6692655;88;20203;-79
2021/09/11 12:27:12;;;;;;;3.45;1.12;;;23.00;99.90;;;;;;6692126;77;20253;-81
2021/09/11 12:37:13;;;;;;;2.83;1.30;;;22.80;99.90;;;;;;6691243;88;20311;-79
2021/09/11 12:47:14;;;;;;;2.20;1.20;;;23.00;99.90;;;;;;6691897;88;20225;-79
2021/09/11 12:57:14;;;;;;;2.30;1.35;;;22.90;99.90;;;;;;6687857;89;20886;-78
2021/09/11 13:07:15;;;;;;;2.60;1.40;;;22.70;99.90;;;;;;6680174;88;20228;-79
2021/09/11 13:17:15;;;;;;;2.20;1.33;;;23.00;99.90;;;;;;6676085;88;20242;-78
2021/09/11 13:27:16;;;;;;;2.97;1.12;;;23.50;99.90;;;;;;6695117;88;20259;-79
2021/09/11 13:37:16;;;;;;;2.20;1.10;;;24.10;99.90;;;;;;6691729;88;20209;-79
2021/09/11 13:47:17;;;;;;;2.00;0.98;;;25.20;99.90;;;;;;6691105;88;20235;-78
2021/09/11 13:57:18;;;;;;;3.20;1.10;;;25.20;99.90;;;;;;6694343;88;20636;-79
2021/09/11 14:07:18;;;;;;;2.67;1.10;;;25.70;99.90;;;;;;6692540;88;20221;-78
2021/09/11 14:17:19;;;;;;;3.22;0.95;;;25.60;99.80;;;;;;6690217;88;20768;-78
2021/09/11 14:27:19;;;;;;;2.25;0.93;;;26.10;99.50;;;;;;6689210;88;20202;-76
2021/09/11 14:37:20;;;;;;;3.43;0.90;;;25.50;98.40;;;;;;6693228;88;20692;-77
2021/09/11 14:47:20;;;;;;;4.10;1.08;;;25.70;97.90;;;;;;6688553;88;20214;-78
2021/09/11 14:57:21;;;;;;;3.20;1.00;;;24.40;99.60;;;;;;6688847;88;20214;-77
2021/09/11 15:07:21;;;;;;;1.87;0.93;;;25.50;99.20;;;;;;6691044;88;20416;-78
2021/09/11 15:17:22;;;;;;;2.78;1.10;;;25.70;98.20;;;;;;6687301;88;20692;-77
2021/09/11 15:27:23;;;;;;;1.60;0.97;;;25.60;98.10;;;;;;6688187;88;20678;-79
2021/09/11 15:37:25;;;;;;;2.00;0.90;;;25.50;97.40;;;;;;6686551;88;20201;-78
2021/09/11 15:47:26;;;;;;;1.45;0.90;;;25.50;97.20;;;;;;6692433;88;20175;-76
2021/09/11 15:57:27;;;;;;;3.25;1.10;;;25.10;97.50;;;;;;6681719;88;20252;-77
2021/09/11 16:07:27;;;;;;;1.80;1.02;;;25.00;98.70;;;;;;6680781;88;20219;-77
2021/09/11 16:17:30;;;;;;;2.62;1.00;;;24.00;99.90;;;;;;6684467;89;20219;-78
2021/09/11 16:27:30;;;;;;;2.03;1.12;;;23.60;99.90;;;;;;6681614;88;20195;-77
2021/09/11 16:37:31;;;;;;;1.50;1.00;;;23.30;99.90;;;;;;6674411;89;20239;-78
2021/09/11 16:47:31;;;;;;;2.50;1.10;;;22.60;99.90;;;;;;6681757;89;20187;-78
2021/09/11 16:57:32;;;;;;;2.12;1.08;;;22.10;99.90;;;;;;6689491;89;20597;-78
2021/09/11 17:07:32;;;;;;;3.42;1.70;;;21.80;99.90;;;;;;6693289;88;21062;-80
2021/09/11 17:17:33;;;;;;;2.40;1.20;;;21.50;99.90;;;;;;6693704;89;20226;-79
2021/09/11 17:27:34;;;;;;;2.83;1.30;;;21.50;99.90;;;;;;6695194;89;20213;-77
2021/09/11 17:37:34;;;;;;;3.37;1.95;;;21.10;99.90;;;;;;6690009;89;20213;-76
2021/09/11 17:47:35;;;;;;;3.58;2.00;;;20.70;99.90;;;;;;6687268;89;20682;-77
2021/09/11 17:57:36;;;;;;;4.93;2.67;;;20.60;99.90;;;;;;6703907;88;20200;-80
2021/09/11 18:07:39;;;;;;;3.03;1.75;;;20.40;99.90;;;;;;6711025;88;20568;-79
2021/09/11 18:17:39;;;;;;;3.45;1.70;;;20.30;99.90;;;;;;6711395;88;20851;-80
2021/09/11 18:27:40;;;;;;;3.22;2.00;;;20.20;99.90;;;;;;6717589;88;20358;-79
2021/09/11 18:37:41;;;;;;;3.10;1.60;;;20.10;99.90;;;;;;6716791;88;20220;-79
2021/09/11 18:47:41;;;;;;;3.95;2.00;;;20.00;99.90;;;;;;6710903;88;20669;-79
2021/09/11 18:57:42;;;;;;;3.80;1.92;;;19.90;99.90;;;;;;6707436;88;20291;-80
2021/09/11 19:07:42;;;;;;;4.53;3.10;;;19.70;99.90;;;;;;6711720;88;21165;-79
2021/09/11 19:17:44;;;;;;;4.62;2.20;;;19.60;99.90;;;;;;6718018;88;20225;-79
2021/09/11 19:27:45;;;;;;;5.37;2.50;;;19.70;99.90;;;;;;6711561;88;20240;-80
2021/09/11 19:37:45;;;;;;;3.72;2.62;;;19.50;99.90;;;;;;6724695;88;20219;-79
2021/09/11 19:47:46;;;;;;;4.80;2.67;;;19.50;99.90;;;;;;6710009;88;20209;-80
2021/09/11 19:57:46;;;;;;;7.20;4.70;;;19.40;99.90;;;;;;6714047;88;20716;-80
2021/09/11 20:07:47;;;;;;;6.75;3.45;;;19.30;99.90;;;;;;6691049;77;20208;-75
2021/09/11 20:17:48;;;;;;;4.10;2.40;;;19.30;99.90;;;;;;6695593;88;20343;-75
2021/09/11 20:27:49;;;;;;;4.28;2.50;;;19.30;99.90;;;;;;6696623;88;20205;-75
2021/09/11 20:37:50;;;;;;;4.53;2.80;;;19.20;99.90;;;;;;6681625;88;20223;-76
2021/09/11 20:47:51;;;;;;;6.57;2.80;;;19.10;99.90;;;;;;6679384;88;20645;-75
2021/09/11 20:57:52;;;;;;;5.55;3.47;;;19.10;99.90;;;;;;6691081;88;20246;-76
2021/09/11 21:07:52;;;;;;;5.60;3.50;;;18.90;99.90;;;;;;6696578;88;20218;-78
2021/09/11 21:17:53;;;;;;;3.83;2.40;;;19.00;99.90;;;;;;6696562;88;20710;-76
2021/09/11 21:27:53;;;;;;;3.35;2.40;;;18.70;99.90;;;;;;6696300;88;20680;-76
2021/09/11 21:37:54;;;;;;;3.95;2.40;;;18.50;99.90;;;;;;6696021;88;20248;-75
2021/09/11 21:47:55;;;;;;;4.35;2.60;;;18.30;99.90;;;;;;6689476;88;20272;-75
2021/09/11 21:57:56;;;;;;;3.63;2.50;;;18.60;99.90;;;;;;6686182;88;20212;-76
2021/09/11 22:07:57;;;;;;;4.07;2.50;;;18.60;99.90;;;;;;6689911;88;20987;-76
2021/09/11 22:17:57;;;;;;;5.72;3.40;;;18.30;99.90;;;;;;6695008;88;20195;-76
2021/09/11 22:27:58;;;;;;;5.85;3.35;;;18.30;99.90;;;;;;6696440;88;21080;-75
2021/09/11 22:37:58;;;;;;;5.68;3.53;;;18.20;99.90;;;;;;6692050;88;20326;-75
2021/09/11 22:47:59;;;;;;;5.62;3.17;;;18.20;99.90;;;;;;6697316;88;20330;-78
2021/09/11 22:57:59;;;;;;;5.50;2.80;;;18.20;99.90;;;;;;6697752;88;20252;-76
2021/09/11 23:08:00;;;;;;;4.05;2.80;;;18.20;99.90;;;;;;6690198;88;20772;-78
2021/09/11 23:18:00;;;;;;;3.80;2.83;;;18.20;99.90;;;;;;6694493;88;20234;-77
2021/09/11 23:28:01;;;;;;;3.47;2.35;;;18.10;99.90;;;;;;6697365;88;20197;-78
2021/09/11 23:38:01;;;;;;;4.87;2.70;;;18.10;99.90;;;;;;6693950;88;20187;-77
2021/09/11 23:48:02;;;;;;;6.00;3.03;;;18.00;99.90;;;;;;6697912;88;20193;-78
2021/09/11 23:58:02;;;;;;;5.10;2.78;;;18.00;99.90;;;;;;6698222;88;20182;-77
